sensor_id;sensor_type;location;lat;lon;timestamp;temperature;humidity
15656;DHT22;7928;43.614;1.456;2023-01-15T00:01:51;9.30;99.90
15656;DHT22;7928;43.614;1.456;2023-01-15T00:04:18;9.20;99.90
15656;DHT22;7928;43.614;1.456;2023-01-15T00:06:45;9.30;99.90
15656;DHT22;7928;43.614;1.456;2023-01-15T00:09:14;9.30;99.90
15656;DHT22;7928;43.614;1.456;2023-01-15T00:11:41;9.20;99.90
15656;DHT22;7928;43.614;1.456;2023-01-15T00:14:08;9.20;99.90
15656;DHT22;7928;43.614;1.456;2023-01-15T00:16:38;9.30;99.90
15656;DHT22;7928;43.614;1.456;2023-01-15T00:19:06;9.20;99.90
15656;DHT22;7928;43.614;1.456;2023-01-15T00:21:37;9.30;99.90
15656;DHT22;7928;43.614;1.456;2023-01-15T00:24:04;9.30;99.90
15656;DHT22;7928;43.614;1.456;2023-01-15T00:26:48;9.30;99.90
15656;DHT22;7928;43.614;1.456;2023-01-15T00:29:33;9.30;99.90
15656;DHT22;7928;43.614;1.456;2023-01-15T00:32:04;9.30;99.90
15656;DHT22;7928;43.614;1.456;2023-01-15T00:34:31;9.30;99.90
15656;DHT22;7928;43.614;1.456;2023-01-15T00:36:59;9.30;99.90
15656;DHT22;7928;43.614;1.456;2023-01-15T00:39:26;9.30;99.90
15656;DHT22;7928;43.614;1.456;2023-01-15T00:41:54;9.30;99.90
15656;DHT22;7928;43.614;1.456;2023-01-15T00:44:21;9.30;99.90
15656;DHT22;7928;43.614;1.456;2023-01-15T00:46:48;9.30;99.90
15656;DHT22;7928;43.614;1.456;2023-01-15T00:49:17;9.20;99.90
15656;DHT22;7928;43.614;1.456;2023-01-15T00:51:44;9.20;99.90
15656;DHT22;7928;43.614;1.456;2023-01-15T00:54:12;9.20;99.90
15656;DHT22;7928;43.614;1.456;2023-01-15T00:56:39;9.20;99.90
15656;DHT22;7928;43.614;1.456;2023-01-15T00:59:06;9.20;99.90
15656;DHT22;7928;43.614;1.456;2023-01-15T01:01:33;9.20;99.90
15656;DHT22;7928;43.614;1.456;2023-01-15T01:04:00;9.20;99.90
15656;DHT22;7928;43.614;1.456;2023-01-15T01:06:29;9.10;99.90
15656;DHT22;7928;43.614;1.456;2023-01-15T01:08:56;9.10;99.90
15656;DHT22;7928;43.614;1.456;2023-01-15T01:11:24;9.10;99.90
15656;DHT22;7928;43.614;1.456;2023-01-15T01:13:53;9.10;99.90
15656;DHT22;7928;43.614;1.456;2023-01-15T01:16:23;9.10;99.90
15656;DHT22;7928;43.614;1.456;2023-01-15T01:18:50;9.20;99.90
15656;DHT22;7928;43.614;1.456;2023-01-15T01:21:17;9.20;99.90
15656;DHT22;7928;43.614;1.456;2023-01-15T01:23:46;9.20;99.90
15656;DHT22;7928;43.614;1.456;2023-01-15T01:26:13;9.20;99.90
15656;DHT22;7928;43.614;1.456;2023-01-15T01:28:40;9.20;99.90
15656;DHT22;7928;43.614;1.456;2023-01-15T01:31:08;9.10;99.90
15656;DHT22;7928;43.614;1.456;2023-01-15T01:33:35;9.10;99.90
15656;DHT22;7928;43.614;1.456;2023-01-15T01:36:03;9.10;99.90
15656;DHT22;7928;43.614;1.456;2023-01-15T01:38:30;9.10;99.90
15656;DHT22;7928;43.614;1.456;2023-01-15T01:40:58;9.20;99.90
15656;DHT22;7928;43.614;1.456;2023-01-15T01:43:28;9.20;99.90
15656;DHT22;7928;43.614;1.456;2023-01-15T01:45:56;9.10;99.90
15656;DHT22;7928;43.614;1.456;2023-01-15T01:48:26;9.10;99.90
15656;DHT22;7928;43.614;1.456;2023-01-15T01:50:55;9.10;99.90
15656;DHT22;7928;43.614;1.456;2023-01-15T01:53:27;9.10;99.90
15656;DHT22;7928;43.614;1.456;2023-01-15T01:55:55;9.10;99.90
15656;DHT22;7928;43.614;1.456;2023-01-15T01:58:27;9.10;99.90
15656;DHT22;7928;43.614;1.456;2023-01-15T02:00:55;9.10;99.90
15656;DHT22;7928;43.614;1.456;2023-01-15T02:03:26;9.20;99.90
15656;DHT22;7928;43.614;1.456;2023-01-15T02:05:57;9.10;99.90
15656;DHT22;7928;43.614;1.456;2023-01-15T02:08:25;9.10;99.90
15656;DHT22;7928;43.614;1.456;2023-01-15T02:10:54;9.20;99.90
15656;DHT22;7928;43.614;1.456;2023-01-15T02:13:29;9.10;99.90
15656;DHT22;7928;43.614;1.456;2023-01-15T02:16:04;9.10;99.90
15656;DHT22;7928;43.614;1.456;2023-01-15T02:18:39;9.10;99.90
15656;DHT22;7928;43.614;1.456;2023-01-15T02:21:12;9.10;99.90
15656;DHT22;7928;43.614;1.456;2023-01-15T02:24:04;9.00;99.90
15656;DHT22;7928;43.614;1.456;2023-01-15T02:27:09;9.00;99.90
15656;DHT22;7928;43.614;1.456;2023-01-15T02:29:44;9.00;99.90
15656;DHT22;7928;43.614;1.456;2023-01-15T02:32:18;9.00;99.90
15656;DHT22;7928;43.614;1.456;2023-01-15T02:34:49;9.00;99.90
15656;DHT22;7928;43.614;1.456;2023-01-15T02:37:22;9.00;99.90
15656;DHT22;7928;43.614;1.456;2023-01-15T02:39:51;8.90;99.90
15656;DHT22;7928;43.614;1.456;2023-01-15T02:42:22;8.90;99.90
15656;DHT22;7928;43.614;1.456;2023-01-15T02:44:53;8.90;99.90
15656;DHT22;7928;43.614;1.456;2023-01-15T02:47:24;8.90;99.90
15656;DHT22;7928;43.614;1.456;2023-01-15T02:49:55;8.90;99.90
15656;DHT22;7928;43.614;1.456;2023-01-15T02:52:26;8.70;99.90
15656;DHT22;7928;43.614;1.456;2023-01-15T02:54:58;8.60;99.90
15656;DHT22;7928;43.614;1.456;2023-01-15T02:57:30;8.40;99.90
15656;DHT22;7928;43.614;1.456;2023-01-15T03:00:00;8.40;99.90
15656;DHT22;7928;43.614;1.456;2023-01-15T03:02:35;8.30;99.90
15656;DHT22;7928;43.614;1.456;2023-01-15T03:05:06;8.30;99.90
15656;DHT22;7928;43.614;1.456;2023-01-15T03:07:38;8.20;99.90
15656;DHT22;7928;43.614;1.456;2023-01-15T03:10:09;8.20;99.90
15656;DHT22;7928;43.614;1.456;2023-01-15T03:12:44;8.10;99.90
15656;DHT22;7928;43.614;1.456;2023-01-15T03:15:40;8.10;99.90
15656;DHT22;7928;43.614;1.456;2023-01-15T03:18:29;8.10;99.90
15656;DHT22;7928;43.614;1.456;2023-01-15T03:21:02;8.10;99.90
15656;DHT22;7928;43.614;1.456;2023-01-15T03:23:36;8.10;99.90
15656;DHT22;7928;43.614;1.456;2023-01-15T03:26:04;8.10;99.90
15656;DHT22;7928;43.614;1.456;2023-01-15T03:28:34;8.00;99.90
15656;DHT22;7928;43.614;1.456;2023-01-15T03:31:02;8.00;99.90
15656;DHT22;7928;43.614;1.456;2023-01-15T03:33:29;8.00;99.90
15656;DHT22;7928;43.614;1.456;2023-01-15T03:35:58;8.00;99.90
15656;DHT22;7928;43.614;1.456;2023-01-15T03:38:27;8.00;99.90
15656;DHT22;7928;43.614;1.456;2023-01-15T03:41:01;8.00;99.90
15656;DHT22;7928;43.614;1.456;2023-01-15T03:43:40;8.00;99.90
15656;DHT22;7928;43.614;1.456;2023-01-15T03:46:22;7.90;99.90
15656;DHT22;7928;43.614;1.456;2023-01-15T03:48:56;7.90;99.90
15656;DHT22;7928;43.614;1.456;2023-01-15T03:51:34;7.80;99.90
15656;DHT22;7928;43.614;1.456;2023-01-15T03:54:08;7.70;99.90
15656;DHT22;7928;43.614;1.456;2023-01-15T03:56:41;7.70;99.90
15656;DHT22;7928;43.614;1.456;2023-01-15T03:59:17;7.70;99.90
15656;DHT22;7928;43.614;1.456;2023-01-15T04:01:47;7.70;99.90
15656;DHT22;7928;43.614;1.456;2023-01-15T04:04:16;7.70;99.90
15656;DHT22;7928;43.614;1.456;2023-01-15T04:06:43;7.60;99.90
15656;DHT22;7928;43.614;1.456;2023-01-15T04:09:12;7.60;99.90
15656;DHT22;7928;43.614;1.456;2023-01-15T04:11:40;7.60;99.90
15656;DHT22;7928;43.614;1.456;2023-01-15T04:14:08;7.60;99.90
15656;DHT22;7928;43.614;1.456;2023-01-15T04:16:39;7.60;99.90
15656;DHT22;7928;43.614;1.456;2023-01-15T04:19:06;7.60;99.90
15656;DHT22;7928;43.614;1.456;2023-01-15T04:21:33;7.60;99.90
15656;DHT22;7928;43.614;1.456;2023-01-15T04:24:00;7.50;99.90
15656;DHT22;7928;43.614;1.456;2023-01-15T04:26:27;7.50;99.90
15656;DHT22;7928;43.614;1.456;2023-01-15T04:28:54;7.40;99.90
15656;DHT22;7928;43.614;1.456;2023-01-15T04:31:21;7.40;99.90
15656;DHT22;7928;43.614;1.456;2023-01-15T04:33:49;7.40;99.90
15656;DHT22;7928;43.614;1.456;2023-01-15T04:36:17;7.30;99.90
15656;DHT22;7928;43.614;1.456;2023-01-15T04:38:44;7.30;99.90
15656;DHT22;7928;43.614;1.456;2023-01-15T04:41:11;7.30;99.90
15656;DHT22;7928;43.614;1.456;2023-01-15T04:43:55;7.20;99.90
15656;DHT22;7928;43.614;1.456;2023-01-15T04:46:36;7.20;99.90
15656;DHT22;7928;43.614;1.456;2023-01-15T04:49:06;7.20;99.90
15656;DHT22;7928;43.614;1.456;2023-01-15T04:51:34;7.20;99.90
15656;DHT22;7928;43.614;1.456;2023-01-15T04:54:02;7.20;99.90
15656;DHT22;7928;43.614;1.456;2023-01-15T04:56:29;7.30;99.90
15656;DHT22;7928;43.614;1.456;2023-01-15T04:58:59;7.20;99.90
15656;DHT22;7928;43.614;1.456;2023-01-15T05:01:26;7.30;99.90
15656;DHT22;7928;43.614;1.456;2023-01-15T05:03:54;7.30;99.90
15656;DHT22;7928;43.614;1.456;2023-01-15T05:06:24;7.40;99.90
15656;DHT22;7928;43.614;1.456;2023-01-15T05:08:51;7.50;99.90
15656;DHT22;7928;43.614;1.456;2023-01-15T05:11:18;7.60;99.90
15656;DHT22;7928;43.614;1.456;2023-01-15T05:13:45;7.50;99.90
15656;DHT22;7928;43.614;1.456;2023-01-15T05:16:15;7.60;99.90
15656;DHT22;7928;43.614;1.456;2023-01-15T05:18:43;7.60;99.90
15656;DHT22;7928;43.614;1.456;2023-01-15T05:21:15;7.60;99.90
15656;DHT22;7928;43.614;1.456;2023-01-15T05:23:44;7.60;99.90
15656;DHT22;7928;43.614;1.456;2023-01-15T05:26:11;7.60;99.90
15656;DHT22;7928;43.614;1.456;2023-01-15T05:28:38;7.60;99.90
15656;DHT22;7928;43.614;1.456;2023-01-15T05:31:06;7.50;99.90
15656;DHT22;7928;43.614;1.456;2023-01-15T05:33:34;7.50;99.90
15656;DHT22;7928;43.614;1.456;2023-01-15T05:36:03;7.50;99.90
15656;DHT22;7928;43.614;1.456;2023-01-15T05:38:30;7.50;99.90
15656;DHT22;7928;43.614;1.456;2023-01-15T05:41:02;7.50;99.90
15656;DHT22;7928;43.614;1.456;2023-01-15T05:43:50;7.50;99.90
15656;DHT22;7928;43.614;1.456;2023-01-15T05:46:17;7.50;99.90
15656;DHT22;7928;43.614;1.456;2023-01-15T05:48:44;7.50;99.90
15656;DHT22;7928;43.614;1.456;2023-01-15T05:51:11;7.50;99.90
15656;DHT22;7928;43.614;1.456;2023-01-15T05:53:38;7.50;99.90
15656;DHT22;7928;43.614;1.456;2023-01-15T05:56:07;7.50;99.90
15656;DHT22;7928;43.614;1.456;2023-01-15T05:58:34;7.60;99.90
15656;DHT22;7928;43.614;1.456;2023-01-15T06:01:05;7.60;99.90
15656;DHT22;7928;43.614;1.456;2023-01-15T06:03:33;7.60;99.90
15656;DHT22;7928;43.614;1.456;2023-01-15T06:06:00;7.60;99.90
15656;DHT22;7928;43.614;1.456;2023-01-15T06:08:27;7.70;99.90
15656;DHT22;7928;43.614;1.456;2023-01-15T06:10:54;7.80;99.90
15656;DHT22;7928;43.614;1.456;2023-01-15T06:13:22;7.80;99.90
15656;DHT22;7928;43.614;1.456;2023-01-15T06:15:49;7.90;99.90
15656;DHT22;7928;43.614;1.456;2023-01-15T06:18:16;8.00;99.90
15656;DHT22;7928;43.614;1.456;2023-01-15T06:20:43;8.00;99.90
15656;DHT22;7928;43.614;1.456;2023-01-15T06:23:10;8.10;99.90
15656;DHT22;7928;43.614;1.456;2023-01-15T06:25:37;8.10;99.90
15656;DHT22;7928;43.614;1.456;2023-01-15T06:28:05;8.10;99.90
15656;DHT22;7928;43.614;1.456;2023-01-15T06:30:34;8.10;99.90
15656;DHT22;7928;43.614;1.456;2023-01-15T06:33:01;8.10;99.90
15656;DHT22;7928;43.614;1.456;2023-01-15T06:35:28;8.20;99.90
15656;DHT22;7928;43.614;1.456;2023-01-15T06:37:55;8.30;99.90
15656;DHT22;7928;43.614;1.456;2023-01-15T06:40:22;8.40;99.90
15656;DHT22;7928;43.614;1.456;2023-01-15T06:42:50;8.50;99.90
15656;DHT22;7928;43.614;1.456;2023-01-15T06:45:47;8.60;99.90
15656;DHT22;7928;43.614;1.456;2023-01-15T06:48:32;8.90;99.90
15656;DHT22;7928;43.614;1.456;2023-01-15T06:50:59;8.90;99.90
15656;DHT22;7928;43.614;1.456;2023-01-15T06:53:26;9.00;99.90
15656;DHT22;7928;43.614;1.456;2023-01-15T06:55:53;9.00;99.90
15656;DHT22;7928;43.614;1.456;2023-01-15T06:58:20;9.00;99.90
15656;DHT22;7928;43.614;1.456;2023-01-15T07:00:49;9.10;99.90
15656;DHT22;7928;43.614;1.456;2023-01-15T07:03:21;9.10;99.90
15656;DHT22;7928;43.614;1.456;2023-01-15T07:05:48;9.10;99.90
15656;DHT22;7928;43.614;1.456;2023-01-15T07:08:15;9.20;99.90
15656;DHT22;7928;43.614;1.456;2023-01-15T07:10:42;9.30;99.90
15656;DHT22;7928;43.614;1.456;2023-01-15T07:13:09;9.30;99.90
15656;DHT22;7928;43.614;1.456;2023-01-15T07:15:37;9.30;99.90
15656;DHT22;7928;43.614;1.456;2023-01-15T07:18:05;9.30;99.90
15656;DHT22;7928;43.614;1.456;2023-01-15T07:20:32;9.30;99.90
15656;DHT22;7928;43.614;1.456;2023-01-15T07:23:00;9.30;99.90
15656;DHT22;7928;43.614;1.456;2023-01-15T07:25:27;9.30;99.90
15656;DHT22;7928;43.614;1.456;2023-01-15T07:27:54;9.30;99.90
15656;DHT22;7928;43.614;1.456;2023-01-15T07:30:21;9.30;99.90
15656;DHT22;7928;43.614;1.456;2023-01-15T07:32:48;9.30;99.90
15656;DHT22;7928;43.614;1.456;2023-01-15T07:35:16;9.30;99.90
15656;DHT22;7928;43.614;1.456;2023-01-15T07:37:43;9.30;99.90
15656;DHT22;7928;43.614;1.456;2023-01-15T07:40:11;9.20;99.90
15656;DHT22;7928;43.614;1.456;2023-01-15T07:42:38;9.20;99.90
15656;DHT22;7928;43.614;1.456;2023-01-15T07:45:23;9.20;99.90
15656;DHT22;7928;43.614;1.456;2023-01-15T07:48:09;9.20;99.90
15656;DHT22;7928;43.614;1.456;2023-01-15T07:50:55;9.10;99.90
15656;DHT22;7928;43.614;1.456;2023-01-15T07:53:22;9.10;99.90
15656;DHT22;7928;43.614;1.456;2023-01-15T07:55:49;9.10;99.90
15656;DHT22;7928;43.614;1.456;2023-01-15T07:58:16;9.00;99.90
15656;DHT22;7928;43.614;1.456;2023-01-15T08:00:43;8.90;99.90
15656;DHT22;7928;43.614;1.456;2023-01-15T08:03:10;8.90;99.90
15656;DHT22;7928;43.614;1.456;2023-01-15T08:05:37;8.90;99.90
15656;DHT22;7928;43.614;1.456;2023-01-15T08:08:13;8.90;99.90
15656;DHT22;7928;43.614;1.456;2023-01-15T08:10:40;8.90;99.90
15656;DHT22;7928;43.614;1.456;2023-01-15T08:13:30;8.90;99.90
15656;DHT22;7928;43.614;1.456;2023-01-15T08:16:16;8.90;99.90
15656;DHT22;7928;43.614;1.456;2023-01-15T08:18:43;8.80;99.90
15656;DHT22;7928;43.614;1.456;2023-01-15T08:21:13;8.90;99.90
15656;DHT22;7928;43.614;1.456;2023-01-15T08:23:42;8.90;99.90
15656;DHT22;7928;43.614;1.456;2023-01-15T08:26:11;8.90;99.90
15656;DHT22;7928;43.614;1.456;2023-01-15T08:28:38;8.90;99.90
15656;DHT22;7928;43.614;1.456;2023-01-15T08:31:06;8.90;99.90
15656;DHT22;7928;43.614;1.456;2023-01-15T08:33:34;8.90;99.90
15656;DHT22;7928;43.614;1.456;2023-01-15T08:36:01;9.00;99.90
15656;DHT22;7928;43.614;1.456;2023-01-15T08:38:28;9.00;99.90
15656;DHT22;7928;43.614;1.456;2023-01-15T08:40:57;9.00;99.90
15656;DHT22;7928;43.614;1.456;2023-01-15T08:43:24;9.00;99.90
15656;DHT22;7928;43.614;1.456;2023-01-15T08:45:51;9.10;99.90
15656;DHT22;7928;43.614;1.456;2023-01-15T08:48:18;9.10;99.90
15656;DHT22;7928;43.614;1.456;2023-01-15T08:50:45;9.20;99.90
15656;DHT22;7928;43.614;1.456;2023-01-15T08:53:12;9.20;99.90
15656;DHT22;7928;43.614;1.456;2023-01-15T08:55:39;9.20;99.90
15656;DHT22;7928;43.614;1.456;2023-01-15T08:58:08;9.30;99.90
15656;DHT22;7928;43.614;1.456;2023-01-15T09:00:35;9.30;99.90
15656;DHT22;7928;43.614;1.456;2023-01-15T09:03:02;9.30;99.90
15656;DHT22;7928;43.614;1.456;2023-01-15T09:05:29;9.30;99.90
15656;DHT22;7928;43.614;1.456;2023-01-15T09:07:56;9.30;99.90
15656;DHT22;7928;43.614;1.456;2023-01-15T09:10:24;9.30;99.90
15656;DHT22;7928;43.614;1.456;2023-01-15T09:12:51;9.20;99.90
15656;DHT22;7928;43.614;1.456;2023-01-15T09:15:19;9.30;99.90
15656;DHT22;7928;43.614;1.456;2023-01-15T09:17:46;9.20;99.90
15656;DHT22;7928;43.614;1.456;2023-01-15T09:20:13;9.30;99.90
15656;DHT22;7928;43.614;1.456;2023-01-15T09:22:40;9.30;99.90
15656;DHT22;7928;43.614;1.456;2023-01-15T09:25:08;9.40;99.90
15656;DHT22;7928;43.614;1.456;2023-01-15T09:27:35;9.60;99.90
15656;DHT22;7928;43.614;1.456;2023-01-15T09:30:03;9.60;99.90
15656;DHT22;7928;43.614;1.456;2023-01-15T09:32:33;9.60;99.90
15656;DHT22;7928;43.614;1.456;2023-01-15T09:35:00;9.60;99.90
15656;DHT22;7928;43.614;1.456;2023-01-15T09:37:28;9.70;99.90
15656;DHT22;7928;43.614;1.456;2023-01-15T09:39:55;9.60;99.90
15656;DHT22;7928;43.614;1.456;2023-01-15T09:42:41;9.70;99.90
15656;DHT22;7928;43.614;1.456;2023-01-15T09:45:19;9.70;99.90
15656;DHT22;7928;43.614;1.456;2023-01-15T09:48:05;9.70;99.90
15656;DHT22;7928;43.614;1.456;2023-01-15T09:50:43;9.60;99.90
15656;DHT22;7928;43.614;1.456;2023-01-15T09:53:27;9.60;99.90
15656;DHT22;7928;43.614;1.456;2023-01-15T09:55:56;9.70;99.90
15656;DHT22;7928;43.614;1.456;2023-01-15T09:58:31;9.50;99.90
15656;DHT22;7928;43.614;1.456;2023-01-15T10:00:59;9.50;99.90
15656;DHT22;7928;43.614;1.456;2023-01-15T10:03:33;9.50;99.90
15656;DHT22;7928;43.614;1.456;2023-01-15T10:06:08;9.30;99.90
15656;DHT22;7928;43.614;1.456;2023-01-15T10:08:43;9.30;99.90
15656;DHT22;7928;43.614;1.456;2023-01-15T10:11:26;9.30;99.90
15656;DHT22;7928;43.614;1.456;2023-01-15T10:14:24;9.20;99.90
15656;DHT22;7928;43.614;1.456;2023-01-15T10:16:57;9.20;99.90
15656;DHT22;7928;43.614;1.456;2023-01-15T10:19:25;9.20;99.90
15656;DHT22;7928;43.614;1.456;2023-01-15T10:21:56;9.20;99.90
15656;DHT22;7928;43.614;1.456;2023-01-15T10:24:31;9.20;99.90
15656;DHT22;7928;43.614;1.456;2023-01-15T10:27:06;9.20;99.90
15656;DHT22;7928;43.614;1.456;2023-01-15T10:29:41;9.30;99.90
15656;DHT22;7928;43.614;1.456;2023-01-15T10:32:21;9.40;99.90
15656;DHT22;7928;43.614;1.456;2023-01-15T10:35:08;9.40;99.90
15656;DHT22;7928;43.614;1.456;2023-01-15T10:37:39;9.50;99.90
15656;DHT22;7928;43.614;1.456;2023-01-15T10:40:25;9.50;99.90
15656;DHT22;7928;43.614;1.456;2023-01-15T10:42:59;9.60;99.90
15656;DHT22;7928;43.614;1.456;2023-01-15T10:45:31;9.70;99.90
15656;DHT22;7928;43.614;1.456;2023-01-15T10:48:04;9.70;99.90
15656;DHT22;7928;43.614;1.456;2023-01-15T10:50:34;9.70;99.90
15656;DHT22;7928;43.614;1.456;2023-01-15T10:53:06;9.80;99.90
15656;DHT22;7928;43.614;1.456;2023-01-15T10:55:37;9.90;99.90
15656;DHT22;7928;43.614;1.456;2023-01-15T10:58:13;10.00;99.90
15656;DHT22;7928;43.614;1.456;2023-01-15T11:00:44;10.20;99.90
15656;DHT22;7928;43.614;1.456;2023-01-15T11:03:14;10.40;99.90
15656;DHT22;7928;43.614;1.456;2023-01-15T11:05:44;10.50;99.90
15656;DHT22;7928;43.614;1.456;2023-01-15T11:08:19;10.60;99.90
15656;DHT22;7928;43.614;1.456;2023-01-15T11:10:48;11.00;99.90
15656;DHT22;7928;43.614;1.456;2023-01-15T11:13:19;11.40;99.90
15656;DHT22;7928;43.614;1.456;2023-01-15T11:16:10;11.50;99.90
15656;DHT22;7928;43.614;1.456;2023-01-15T11:19:00;11.40;99.90
15656;DHT22;7928;43.614;1.456;2023-01-15T11:21:46;11.10;99.90
15656;DHT22;7928;43.614;1.456;2023-01-15T11:24:15;11.40;99.90
15656;DHT22;7928;43.614;1.456;2023-01-15T11:26:46;11.20;99.90
15656;DHT22;7928;43.614;1.456;2023-01-15T11:29:19;11.50;99.90
15656;DHT22;7928;43.614;1.456;2023-01-15T11:31:47;11.60;99.90
15656;DHT22;7928;43.614;1.456;2023-01-15T11:34:18;11.90;99.90
15656;DHT22;7928;43.614;1.456;2023-01-15T11:36:47;12.10;99.90
15656;DHT22;7928;43.614;1.456;2023-01-15T11:39:22;11.80;99.90
15656;DHT22;7928;43.614;1.456;2023-01-15T11:41:57;11.50;99.90
15656;DHT22;7928;43.614;1.456;2023-01-15T11:44:50;11.50;99.90
15656;DHT22;7928;43.614;1.456;2023-01-15T11:47:34;11.50;99.90
15656;DHT22;7928;43.614;1.456;2023-01-15T11:50:19;11.50;99.90
15656;DHT22;7928;43.614;1.456;2023-01-15T11:53:06;11.50;99.90
15656;DHT22;7928;43.614;1.456;2023-01-15T11:55:34;11.50;99.90
15656;DHT22;7928;43.614;1.456;2023-01-15T11:58:02;11.40;99.90
15656;DHT22;7928;43.614;1.456;2023-01-15T12:00:41;11.50;99.90
15656;DHT22;7928;43.614;1.456;2023-01-15T12:03:15;11.70;99.90
15656;DHT22;7928;43.614;1.456;2023-01-15T12:05:46;11.80;99.90
15656;DHT22;7928;43.614;1.456;2023-01-15T12:08:24;11.90;99.90
15656;DHT22;7928;43.614;1.456;2023-01-15T12:10:58;12.20;99.90
15656;DHT22;7928;43.614;1.456;2023-01-15T12:13:35;12.10;99.90
15656;DHT22;7928;43.614;1.456;2023-01-15T12:16:09;11.90;99.90
15656;DHT22;7928;43.614;1.456;2023-01-15T12:18:53;11.90;99.90
15656;DHT22;7928;43.614;1.456;2023-01-15T12:24:31;12.10;31.30
15656;DHT22;7928;43.614;1.456;2023-01-15T12:27:29;12.20;42.50
15656;DHT22;7928;43.614;1.456;2023-01-15T12:30:03;12.40;20.90
15656;DHT22;7928;43.614;1.456;2023-01-15T12:32:42;12.80;1.00
15656;DHT22;7928;43.614;1.456;2023-01-15T12:35:15;12.60;99.90
15656;DHT22;7928;43.614;1.456;2023-01-15T12:37:47;12.60;1.00
15656;DHT22;7928;43.614;1.456;2023-01-15T12:40:23;12.40;1.00
15656;DHT22;7928;43.614;1.456;2023-01-15T12:42:52;12.10;16.10
15656;DHT22;7928;43.614;1.456;2023-01-15T12:45:40;11.90;17.00
15656;DHT22;7928;43.614;1.456;2023-01-15T12:48:13;11.70;32.50
15656;DHT22;7928;43.614;1.456;2023-01-15T12:50:45;11.50;7.10
15656;DHT22;7928;43.614;1.456;2023-01-15T12:53:17;11.40;12.30
15656;DHT22;7928;43.614;1.456;2023-01-15T12:55:52;11.30;13.60
15656;DHT22;7928;43.614;1.456;2023-01-15T12:58:36;11.10;16.50
15656;DHT22;7928;43.614;1.456;2023-01-15T13:01:11;11.10;22.20
15656;DHT22;7928;43.614;1.456;2023-01-15T13:03:50;10.90;18.60
15656;DHT22;7928;43.614;1.456;2023-01-15T13:06:19;10.90;16.40
15656;DHT22;7928;43.614;1.456;2023-01-15T13:08:55;10.80;17.40
15656;DHT22;7928;43.614;1.456;2023-01-15T13:11:34;10.80;21.10
15656;DHT22;7928;43.614;1.456;2023-01-15T13:14:01;10.80;25.00
15656;DHT22;7928;43.614;1.456;2023-01-15T13:16:42;10.90;25.70
15656;DHT22;7928;43.614;1.456;2023-01-15T13:19:28;11.00;26.00
15656;DHT22;7928;43.614;1.456;2023-01-15T13:22:02;11.00;30.20
15656;DHT22;7928;43.614;1.456;2023-01-15T13:24:54;10.50;4.10
15656;DHT22;7928;43.614;1.456;2023-01-15T13:27:38;10.20;30.90
15656;DHT22;7928;43.614;1.456;2023-01-15T13:30:18;10.10;27.50
15656;DHT22;7928;43.614;1.456;2023-01-15T13:32:48;9.90;35.40
15656;DHT22;7928;43.614;1.456;2023-01-15T13:35:26;9.90;55.40
15656;DHT22;7928;43.614;1.456;2023-01-15T13:37:56;9.80;78.40
15656;DHT22;7928;43.614;1.456;2023-01-15T13:40:26;9.80;88.80
15656;DHT22;7928;43.614;1.456;2023-01-15T13:42:59;9.70;91.30
15656;DHT22;7928;43.614;1.456;2023-01-15T13:45:35;9.70;93.60
15656;DHT22;7928;43.614;1.456;2023-01-15T13:48:06;9.70;96.10
15656;DHT22;7928;43.614;1.456;2023-01-15T13:50:35;9.70;98.80
15656;DHT22;7928;43.614;1.456;2023-01-15T13:53:06;9.70;96.80
15656;DHT22;7928;43.614;1.456;2023-01-15T13:55:37;9.70;99.00
15656;DHT22;7928;43.614;1.456;2023-01-15T13:58:24;9.50;99.90
15656;DHT22;7928;43.614;1.456;2023-01-15T14:01:06;9.70;99.90
15656;DHT22;7928;43.614;1.456;2023-01-15T14:03:35;9.80;99.90
15656;DHT22;7928;43.614;1.456;2023-01-15T14:06:05;9.90;99.90
15656;DHT22;7928;43.614;1.456;2023-01-15T14:08:38;10.10;99.90
15656;DHT22;7928;43.614;1.456;2023-01-15T14:11:29;10.40;99.90
15656;DHT22;7928;43.614;1.456;2023-01-15T14:14:14;10.50;99.90
15656;DHT22;7928;43.614;1.456;2023-01-15T14:16:51;10.50;79.10
15656;DHT22;7928;43.614;1.456;2023-01-15T14:19:47;10.50;66.50
15656;DHT22;7928;43.614;1.456;2023-01-15T14:22:44;10.40;58.80
15656;DHT22;7928;43.614;1.456;2023-01-15T14:25:31;10.50;80.40
15656;DHT22;7928;43.614;1.456;2023-01-15T14:28:25;10.50;65.40
15656;DHT22;7928;43.614;1.456;2023-01-15T14:31:18;10.40;59.10
15656;DHT22;7928;43.614;1.456;2023-01-15T14:34:05;10.70;84.90
15656;DHT22;7928;43.614;1.456;2023-01-15T14:36:38;10.90;80.40
15656;DHT22;7928;43.614;1.456;2023-01-15T14:39:21;11.10;64.80
15656;DHT22;7928;43.614;1.456;2023-01-15T14:41:55;11.40;47.50
15656;DHT22;7928;43.614;1.456;2023-01-15T14:44:42;11.60;45.00
15656;DHT22;7928;43.614;1.456;2023-01-15T14:47:22;11.50;20.30
15656;DHT22;7928;43.614;1.456;2023-01-15T14:50:20;11.20;13.50
15656;DHT22;7928;43.614;1.456;2023-01-15T14:52:49;11.00;19.80
15656;DHT22;7928;43.614;1.456;2023-01-15T14:55:17;10.90;31.10
15656;DHT22;7928;43.614;1.456;2023-01-15T14:57:52;10.70;41.00
15656;DHT22;7928;43.614;1.456;2023-01-15T15:00:23;10.50;40.30
15656;DHT22;7928;43.614;1.456;2023-01-15T15:02:54;10.50;44.70
15656;DHT22;7928;43.614;1.456;2023-01-15T15:05:23;10.60;46.00
15656;DHT22;7928;43.614;1.456;2023-01-15T15:07:51;10.70;51.60
15656;DHT22;7928;43.614;1.456;2023-01-15T15:10:23;10.50;37.30
15656;DHT22;7928;43.614;1.456;2023-01-15T15:12:57;10.90;42.40
15656;DHT22;7928;43.614;1.456;2023-01-15T15:15:36;11.40;24.80
15656;DHT22;7928;43.614;1.456;2023-01-15T15:18:12;15.70;99.90
15656;DHT22;7928;43.614;1.456;2023-01-15T15:20:48;16.50;99.90
15656;DHT22;7928;43.614;1.456;2023-01-15T15:23:22;17.10;99.90
15656;DHT22;7928;43.614;1.456;2023-01-15T15:25:54;17.40;99.90
15656;DHT22;7928;43.614;1.456;2023-01-15T15:28:22;17.30;99.90
15656;DHT22;7928;43.614;1.456;2023-01-15T15:30:49;16.10;99.90
15656;DHT22;7928;43.614;1.456;2023-01-15T15:33:20;17.20;99.90
15656;DHT22;7928;43.614;1.456;2023-01-15T15:35:49;18.10;99.90
15656;DHT22;7928;43.614;1.456;2023-01-15T15:38:19;18.20;99.90
15656;DHT22;7928;43.614;1.456;2023-01-15T15:40:49;18.10;99.90
15656;DHT22;7928;43.614;1.456;2023-01-15T15:43:20;16.20;99.90
15656;DHT22;7928;43.614;1.456;2023-01-15T15:46:22;14.80;1.00
15656;DHT22;7928;43.614;1.456;2023-01-15T15:49:08;14.90;1.00
15656;DHT22;7928;43.614;1.456;2023-01-15T15:51:37;13.30;1.00
15656;DHT22;7928;43.614;1.456;2023-01-15T15:54:16;12.30;1.00
15656;DHT22;7928;43.614;1.456;2023-01-15T15:56:52;11.60;1.00
15656;DHT22;7928;43.614;1.456;2023-01-15T15:59:27;11.30;1.00
15656;DHT22;7928;43.614;1.456;2023-01-15T16:01:57;11.00;1.00
15656;DHT22;7928;43.614;1.456;2023-01-15T16:04:27;10.80;1.00
15656;DHT22;7928;43.614;1.456;2023-01-15T16:06:54;10.70;1.00
15656;DHT22;7928;43.614;1.456;2023-01-15T16:09:22;10.50;1.00
15656;DHT22;7928;43.614;1.456;2023-01-15T16:11:51;10.30;2.60
15656;DHT22;7928;43.614;1.456;2023-01-15T16:14:20;10.20;9.90
15656;DHT22;7928;43.614;1.456;2023-01-15T16:16:48;10.00;17.20
15656;DHT22;7928;43.614;1.456;2023-01-15T16:19:20;9.80;25.10
15656;DHT22;7928;43.614;1.456;2023-01-15T16:21:52;9.70;34.60
15656;DHT22;7928;43.614;1.456;2023-01-15T16:24:23;9.50;48.90
15656;DHT22;7928;43.614;1.456;2023-01-15T16:26:55;9.50;54.90
15656;DHT22;7928;43.614;1.456;2023-01-15T16:29:25;9.40;63.20
15656;DHT22;7928;43.614;1.456;2023-01-15T16:31:53;9.30;73.50
15656;DHT22;7928;43.614;1.456;2023-01-15T16:34:25;9.20;87.20